11:43
Airports
Links
Donate
Help keep this website running!
PayPal
Bitcoin
METAR
KEUL 201056Z AUTO 25009KT 10SM CLR M11/M17 A3012 RMK AO2 SLP232 T11061167 FZRANO
Current Weather Conditions at KEUL
VFR 10:56:00 20-02-18
Automated station, no observer
Altimeter:30.12 hg
Temp:-10.6°c 14°f
Dew point:-16.7°cf
Wind:9 knots, 10.4 mph, 5 m/s, from 250°
Visibility:10.0 statute miles
(CLR) Clear
Past METAR reports
VFR 09:56:00 20-02-18
Automated station, no observer
Altimeter:30.12 hg
Temp:-9.4°c 16°f
Dew point:-16.1°cf
Wind:11 knots, 12.7 mph, 6 m/s, from 270°
Visibility:10.0 statute miles
(CLR) Clear
KEUL 200956Z AUTO 27011KT 10SM CLR M09/M16 A3012 RMK AO2 SLP229 T10941161 FZRANO
VFR 08:56:00 20-02-18
Automated station, no observer
Altimeter:30.11 hg
Temp:-9.4°c 16°f
Dew point:-16.1°cf
Wind:12 knots, 13.8 mph, 6 m/s, from 270°
Visibility:10.0 statute miles
(CLR) Clear
KEUL 200856Z AUTO 27012KT 10SM CLR M09/M16 A3011 RMK AO2 SLP225 T10941161 51018 FZRANO
VFR 07:56:00 20-02-18
Automated station, no observer
Altimeter:30.09 hg
Temp:-8.9°c 18°f
Dew point:-16.1°cf
Wind:14 knots, 16.1 mph, 7 m/s, from 270°
Visibility:10.0 statute miles
(CLR) Clear
KEUL 200756Z AUTO 27014KT 10SM CLR M09/M16 A3009 RMK AO2 SLP219 T10891161 FZRANO
VFR 06:56:00 20-02-18
Automated station, no observer
Altimeter:30.07 hg
Temp:-8.9°c 18°f
Dew point:-15.6°cf
Wind:13 knots, 15 mph, 7 m/s, from 260°
Visibility:10.0 statute miles
(CLR) Clear
KEUL 200656Z AUTO 26013G19KT 10SM CLR M09/M16 A3007 RMK AO2 SLP213 T10891156 400001089 FZRANO
VFR 05:56:00 20-02-18
Automated station, no observer
Altimeter:30.05 hg
Temp:-8.3°c 18°f
Dew point:-15.6°cf
Wind:14 knots, 16.1 mph, 7 m/s, from 270°
Visibility:10.0 statute miles
6000(BKN) Broken
KEUL 200556Z AUTO 27014KT 10SM BKN060 M08/M16 A3005 RMK AO2 PK WND 27026/0533 SLP205 T10831156 11022 21083 51023 FZRANO
TAF
KEUL 201123Z 2012/2112 26009KT P6SM SKC FM210100 13007KT P6SM BKN200 FM210600 13008KT P6SM SCT080 OVC120
Forecast at KEUL
12:00 20-02-18 to 01:00 21-02-18
Wind:9 Knots from 260°
Visibility:6.21 statute miles
SKC Clear
FM 01:00 21-02-18 to 06:00 21-02-18
Wind:7 Knots from 130°
Visibility:6.21 statute miles
20000BKN Broken
FM 06:00 21-02-18 to 12:00 21-02-18
Wind:8 Knots from 130°
Visibility:6.21 statute miles
8000SCT Scattered
12000OVC Overcast